Knight, Indiana
Current Conditions -  °F | °C
As of 6:54 AM on Friday 31 Oct 2014 (Local Time) from KEVV Reporting Station
Overcast Overcast  
Wind Chill: 46°   Ceiling: 3300
Heat Index: 48°   Visibility: 8mi
Dew Point: 44°   Wind: 5mph
Humidity: 86%   Direction: NA
Pressure: 30.05"   Gusts: NA
Location:  38.0153°N, 87.5343°W
Report Text: KEVV 311154Z VRB04KT 8SM FEW019 BKN033 OVC050 09/07 A3005 RMK AO2 SLP177 60001 70001 T00890067 10106 20089 53009
Loading
Personal Weather Stations






























Interactive Weather Map
Tropical Storm Tracking
New forecast layout! Learn more

10-Day Weather Forecast

Advertisements
Track Severe Weather on mobile